Hlavní strana
METAR-TAF:

METAR-TAF

Letiště :

Fort Rucker, Alabama, Spojené státy americké

zeměpisná šířka: 31-21-32N, zeměpisná délka: 085-44-54W, výška: 78 m

Aktuální stav počasí

Zpráva byla vytvořena před 28 minutami, v 17:58 UTC
Severní vítr 8 kt
Teplota 10°C
Vlhkost vzduchu 93%
Tlak 1019 hPa
Viditelnost: 16.1 km
Zataženo ve výšce 900 ft

METAR: KLOR 151758Z AUTO 36008KT 10SM OVC009 10/09 A3008 RMK AO2 SLP170 60000 T00980088 10098 20073 58017

Čas: 12:26 (18:26 UTC)


TAF: chybějící

Stav a předpovědi počasí z více než 4 000 letišť (zprávy METAR a TAF).

Červené a žluté tečky na mapě představují dostupné meteorologické stanice.

Když kurzor umístíte na tečku, zobrazí se název stanice.

Pak kliknutím zobrazíte stav a předpověď počasí.

Chcete-li změnit mapu, kliknutím na zelené tlačítko se znaménkem +mapu přiblížíte, kliknutím na zelené tlačítko se znaménkem – mapu oddálíte a kliknutím na zelené šipky přejdete na sousední mapy.


METAR-TAF: